Ripley, Illinois
Current Conditions -  °F | °C
As of 7:15 AM on Friday 31 Oct 2014 (Local Time) from KPPQ Reporting Station
Scattered Clouds Scattered Clouds  
Wind Chill: 30°   Ceiling: Unl
Heat Index: 39°   Visibility: 10mi
Dew Point: 27°   Wind: 17mph
Humidity: 62%   Direction: 330°NNW
Pressure: 30.25"   Gusts: 31mph
Location:  39.9985°N, 90.6925°W
Report Text: KPPQ 311215Z AUTO 33015G27KT 10SM SCT047 04/M03 A3025 RMK AO2 T00401028
Loading
Personal Weather Stations






























Interactive Weather Map
Tropical Storm Tracking
New forecast layout! Learn more

10-Day Weather Forecast

Advertisements
Track Severe Weather on mobile